Time;durP1;ratioP1;P1;durP2;ratioP2;P2;SDS_P1;SDS_P2;PMS_P1;PMS_P2;Temp;Humidity;BMP_temperature;BMP_pressure;BME280_temperature;BME280_humidity;BME280_pressure;Samples;Min_cycle;Max_cycle;Signal;HPM_P1;HPM_P2
2022/08/26 00:00:27;;;;;;;16.23;12.07;;;21.60;99.90;;;;;;5019917;28;20174;-78
2022/08/26 00:02:53;;;;;;;18.33;11.93;;;21.40;99.90;;;;;;5020300;28;20259;-78
2022/08/26 00:05:19;;;;;;;16.42;11.82;;;21.60;99.90;;;;;;5020614;28;20257;-77
2022/08/26 00:07:44;;;;;;;18.70;11.38;;;21.70;99.90;;;;;;5021635;28;20205;-79
2022/08/26 00:10:10;;;;;;;14.02;11.27;;;21.60;99.90;;;;;;5020971;28;20174;-77
2022/08/26 00:12:37;;;;;;;16.80;12.02;;;21.50;99.90;;;;;;5020325;28;20177;-79
2022/08/26 00:15:05;;;;;;;20.02;11.80;;;21.40;99.90;;;;;;5020839;28;20643;-78
2022/08/26 00:17:31;;;;;;;17.25;12.20;;;21.20;99.90;;;;;;5021934;28;20281;-78
2022/08/26 00:19:57;;;;;;;19.33;12.98;;;21.20;99.90;;;;;;5020124;28;20821;-78
2022/08/26 00:22:22;;;;;;;17.70;12.00;;;21.20;99.90;;;;;;5020939;28;20174;-77
2022/08/26 00:24:48;;;;;;;18.55;12.75;;;21.30;99.90;;;;;;5019995;28;20641;-79
2022/08/26 00:27:13;;;;;;;17.45;12.13;;;21.30;99.90;;;;;;5019628;28;20262;-78
2022/08/26 00:29:39;;;;;;;14.77;12.07;;;21.20;99.90;;;;;;5020378;28;20180;-77
2022/08/26 00:32:05;;;;;;;21.25;12.32;;;21.20;99.90;;;;;;5020646;28;20181;-77
2022/08/26 00:34:31;;;;;;;19.95;11.48;;;21.10;99.90;;;;;;5018448;28;20166;-79
2022/08/26 00:36:57;;;;;;;15.75;11.77;;;21.20;99.90;;;;;;5018856;28;20198;-78
2022/08/26 00:39:22;;;;;;;21.67;11.45;;;21.00;99.90;;;;;;5020669;28;20174;-76
2022/08/26 00:41:49;;;;;;;17.75;11.75;;;21.10;99.90;;;;;;5018745;28;20574;-77
2022/08/26 00:44:16;;;;;;;15.75;12.25;;;21.30;99.90;;;;;;5018452;28;20554;-77
2022/08/26 00:46:46;;;;;;;19.15;12.00;;;21.30;99.90;;;;;;5018773;28;20186;-79
2022/08/26 00:49:22;;;;;;;19.48;12.27;;;21.10;99.90;;;;;;5018231;28;20201;-77
2022/08/26 00:51:57;;;;;;;19.20;12.60;;;21.10;99.90;;;;;;5018200;28;20178;-79
2022/08/26 00:54:26;;;;;;;18.63;12.90;;;21.10;99.90;;;;;;5018162;28;20661;-78
2022/08/26 00:56:56;;;;;;;20.63;13.10;;;21.00;99.90;;;;;;5017590;28;20186;-76
2022/08/26 00:59:24;;;;;;;20.77;12.95;;;20.90;99.90;;;;;;5017634;28;20285;-79
2022/08/26 01:01:50;;;;;;;18.05;11.63;;;20.70;99.90;;;;;;5031577;22;20222;-82
2022/08/26 01:04:19;;;;;;;25.02;12.25;;;20.70;99.90;;;;;;5017640;28;20699;-82
2022/08/26 01:06:46;;;;;;;20.08;13.15;;;20.60;99.90;;;;;;5017522;28;20198;-82
2022/08/26 01:09:12;;;;;;;19.40;12.77;;;20.50;99.90;;;;;;5018118;28;20233;-82
2022/08/26 01:11:39;;;;;;;19.80;12.60;;;20.40;99.90;;;;;;5016992;28;20244;-82
2022/08/26 01:14:05;;;;;;;20.42;14.05;;;20.50;99.90;;;;;;5017072;28;20773;-82
2022/08/26 01:16:32;;;;;;;17.83;12.80;;;20.60;99.90;;;;;;5017956;28;20676;-82
2022/08/26 01:19:06;;;;;;;23.60;12.98;;;20.70;99.90;;;;;;5021983;28;20170;-82
2022/08/26 01:21:39;;;;;;;19.63;13.10;;;20.60;99.90;;;;;;5020786;28;20173;-82
2022/08/26 01:24:06;;;;;;;22.73;13.88;;;20.70;99.90;;;;;;5021061;28;20196;-82
2022/08/26 01:26:40;;;;;;;21.40;13.95;;;20.70;99.90;;;;;;5020624;28;20194;-82
2022/08/26 01:29:07;;;;;;;19.55;12.85;;;20.50;99.90;;;;;;5017539;28;20206;-81
2022/08/26 01:31:43;;;;;;;19.13;13.48;;;20.30;99.90;;;;;;5017019;28;20245;-82
2022/08/26 01:34:34;;;;;;;18.98;13.52;;;20.20;99.90;;;;;;5016873;28;20201;-82
2022/08/26 01:37:25;;;;;;;18.75;12.50;;;20.40;99.90;;;;;;5017099;28;20194;-82
2022/08/26 01:39:54;;;;;;;23.40;14.02;;;20.30;99.90;;;;;;5017295;28;20182;-84
2022/08/26 01:42:22;;;;;;;20.15;13.45;;;19.90;99.90;;;;;;5034329;28;20732;-83
2022/08/26 01:44:56;;;;;;;21.95;13.80;;;19.90;99.90;;;;;;5015470;28;20192;-82
2022/08/26 01:47:26;;;;;;;22.20;15.27;;;19.90;99.90;;;;;;5016177;28;20307;-84
2022/08/26 01:49:54;;;;;;;21.10;15.57;;;20.10;99.90;;;;;;5017450;28;20162;-84
2022/08/26 01:52:24;;;;;;;26.67;16.53;;;20.10;99.90;;;;;;5018128;28;20193;-84
2022/08/26 01:54:51;;;;;;;25.25;15.63;;;20.20;99.90;;;;;;5016258;28;20173;-83
2022/08/26 01:57:19;;;;;;;26.10;15.43;;;20.20;99.90;;;;;;5016227;28;20217;-84
2022/08/26 01:59:46;;;;;;;20.70;15.60;;;20.10;99.90;;;;;;5017400;28;20177;-84
2022/08/26 02:02:12;;;;;;;25.83;15.40;;;20.00;99.90;;;;;;5015704;28;20271;-84
2022/08/26 02:04:47;;;;;;;22.70;16.05;;;20.10;99.90;;;;;;5015970;28;20235;-84
2022/08/26 02:07:16;;;;;;;19.42;14.25;;;20.00;99.90;;;;;;5033540;28;20187;-84
2022/08/26 02:09:42;;;;;;;26.40;16.00;;;20.10;99.90;;;;;;5017003;28;20170;-84
2022/08/26 02:12:10;;;;;;;21.80;15.63;;;20.30;99.90;;;;;;5015643;28;20173;-84
2022/08/26 02:14:41;;;;;;;19.10;15.33;;;20.00;99.90;;;;;;5015464;28;20173;-84
2022/08/26 02:17:09;;;;;;;19.40;14.37;;;19.90;99.90;;;;;;5015799;28;20285;-84
2022/08/26 02:19:39;;;;;;;23.90;15.73;;;19.90;99.90;;;;;;5017096;28;20193;-83
2022/08/26 02:22:12;;;;;;;24.23;16.43;;;19.90;99.90;;;;;;5015627;28;20212;-84
2022/08/26 02:24:48;;;;;;;23.80;16.27;;;20.10;99.90;;;;;;5015691;28;20169;-84
2022/08/26 02:27:16;;;;;;;24.63;16.33;;;20.00;99.90;;;;;;5016255;28;20595;-84
2022/08/26 02:29:46;;;;;;;27.73;15.67;;;19.70;99.90;;;;;;5018273;28;20257;-84
2022/08/26 02:32:12;;;;;;;23.75;16.45;;;19.90;99.90;;;;;;5017261;28;20158;-84
2022/08/26 02:34:38;;;;;;;26.10;17.70;;;19.60;99.90;;;;;;5017195;28;20222;-84
2022/08/26 02:37:09;;;;;;;24.05;18.10;;;19.90;99.90;;;;;;5017037;28;20193;-84
2022/08/26 02:39:37;;;;;;;24.00;17.47;;;19.70;99.90;;;;;;5018713;28;20177;-84
2022/08/26 02:42:03;;;;;;;24.03;17.77;;;19.60;99.90;;;;;;5016888;28;20170;-84
2022/08/26 02:44:29;;;;;;;21.70;16.07;;;19.70;99.90;;;;;;5016562;28;20177;-84
2022/08/26 02:46:55;;;;;;;28.33;17.37;;;19.70;99.90;;;;;;5016493;28;20186;-84
2022/08/26 02:49:22;;;;;;;24.47;16.67;;;19.80;99.90;;;;;;5017278;28;20197;-84
2022/08/26 02:51:49;;;;;;;25.40;18.27;;;19.90;99.90;;;;;;5016242;28;20174;-84
2022/08/26 02:54:20;;;;;;;25.47;16.53;;;19.60;99.90;;;;;;5016475;28;20170;-84
2022/08/26 02:56:46;;;;;;;27.33;17.57;;;19.50;99.90;;;;;;5016823;28;20209;-84
2022/08/26 02:59:12;;;;;;;26.83;16.57;;;19.70;99.90;;;;;;5018303;28;20206;-84
2022/08/26 03:01:39;;;;;;;20.83;16.93;;;19.80;99.90;;;;;;5016576;28;20193;-84
2022/08/26 03:04:08;;;;;;;28.50;16.27;;;19.50;99.90;;;;;;5016075;28;20181;-84
2022/08/26 03:06:34;;;;;;;24.43;15.60;;;19.70;99.90;;;;;;5016649;28;20662;-84
2022/08/26 03:09:00;;;;;;;24.27;16.93;;;19.60;99.90;;;;;;5016569;28;20208;-84
2022/08/26 03:11:25;;;;;;;25.80;18.13;;;19.60;99.90;;;;;;5015692;28;20345;-83
2022/08/26 03:13:51;;;;;;;24.07;17.07;;;19.70;99.90;;;;;;5017256;28;20170;-83
2022/08/26 03:16:17;;;;;;;29.67;17.57;;;19.60;99.90;;;;;;5019694;28;20190;-85
2022/08/26 03:18:44;;;;;;;28.67;17.03;;;19.50;99.90;;;;;;5020405;28;20173;-84
2022/08/26 03:21:14;;;;;;;23.07;17.23;;;19.50;99.90;;;;;;5021530;28;20584;-85
2022/08/26 03:23:42;;;;;;;29.10;18.77;;;19.40;99.90;;;;;;5020239;28;20650;-84
2022/08/26 03:26:12;;;;;;;27.70;17.17;;;19.50;99.90;;;;;;5019953;28;20198;-84
2022/08/26 03:30:38;;;;;;;23.47;17.33;;;19.50;99.90;;;;;;5017172;28;20274;-85
2022/08/26 03:31:24;;;;;;;25.30;16.87;;;19.40;99.90;;;;;;5033768;28;20181;-84
2022/08/26 03:33:49;;;;;;;24.43;16.93;;;19.60;99.90;;;;;;5015811;28;20658;-84
2022/08/26 03:36:15;;;;;;;33.87;19.57;;;19.50;99.90;;;;;;5015525;28;20355;-84
2022/08/26 03:38:41;;;;;;;29.87;20.00;;;19.50;99.90;;;;;;5016256;28;20662;-85
2022/08/26 03:41:07;;;;;;;27.27;18.93;;;19.30;99.90;;;;;;5015785;28;20200;-84
2022/08/26 03:43:33;;;;;;;28.97;20.37;;;19.00;99.90;;;;;;5016149;28;20181;-83
2022/08/26 03:46:07;;;;;;;28.50;18.77;;;19.10;99.90;;;;;;5015786;28;20194;-84
2022/08/26 03:48:34;;;;;;;31.50;20.17;;;19.20;99.90;;;;;;5017313;28;20194;-84
2022/08/26 03:51:01;;;;;;;31.13;19.37;;;19.40;99.90;;;;;;5016574;28;20681;-84
2022/08/26 03:53:27;;;;;;;35.03;19.07;;;19.30;99.90;;;;;;5016322;28;20613;-84
2022/08/26 03:55:54;;;;;;;30.57;19.53;;;19.40;99.90;;;;;;5015792;28;20198;-84
2022/08/26 03:58:22;;;;;;;32.50;19.80;;;19.10;99.90;;;;;;5016859;28;20166;-84
2022/08/26 04:00:50;;;;;;;30.97;20.80;;;19.00;99.90;;;;;;5014846;28;20265;-84
2022/08/26 04:03:56;;;;;;;26.13;18.83;;;19.10;99.90;;;;;;5014982;28;20281;-84
2022/08/26 04:06:02;;;;;;;32.27;19.50;;;19.00;99.90;;;;;;5032663;28;20689;-83
2022/08/26 04:08:28;;;;;;;31.60;20.63;;;19.00;99.90;;;;;;5016921;28;20201;-83
2022/08/26 04:10:54;;;;;;;33.97;19.80;;;19.10;99.90;;;;;;5018489;28;20656;-84
2022/08/26 04:13:19;;;;;;;32.90;21.43;;;19.00;99.90;;;;;;5017841;28;20172;-83
2022/08/26 04:15:45;;;;;;;31.43;20.87;;;19.00;99.90;;;;;;5018122;28;20193;-84
2022/08/26 04:18:11;;;;;;;31.37;21.27;;;18.90;99.90;;;;;;5018128;28;20235;-83
2022/08/26 04:20:36;;;;;;;30.57;20.70;;;18.90;99.90;;;;;;5017748;28;20177;-84
2022/08/26 04:23:03;;;;;;;30.70;21.87;;;18.80;99.90;;;;;;5017276;28;20634;-84
2022/08/26 04:25:28;;;;;;;33.10;22.13;;;18.70;99.90;;;;;;5017749;28;20224;-83
2022/08/26 04:27:54;;;;;;;35.13;22.63;;;18.70;99.90;;;;;;5021261;28;20270;-84
2022/08/26 04:30:20;;;;;;;35.00;22.40;;;18.70;99.90;;;;;;5022448;28;20170;-83
2022/08/26 04:32:47;;;;;;;35.60;22.87;;;18.70;99.90;;;;;;5021585;28;20170;-83
2022/08/26 04:35:13;;;;;;;33.57;21.83;;;18.80;99.90;;;;;;5021310;28;20174;-84
2022/08/26 04:37:38;;;;;;;37.17;24.90;;;18.80;99.90;;;;;;5021694;28;20252;-84
2022/08/26 04:40:05;;;;;;;36.73;24.70;;;18.80;99.90;;;;;;5023548;28;20178;-84
2022/08/26 04:42:32;;;;;;;37.40;25.00;;;18.80;99.90;;;;;;5021449;28;20202;-83
2022/08/26 04:44:58;;;;;;;44.23;27.43;;;18.80;99.90;;;;;;5021121;28;20646;-84
2022/08/26 04:47:23;;;;;;;46.37;27.20;;;18.70;99.90;;;;;;5020606;28;20305;-84
2022/08/26 04:49:53;;;;;;;42.83;29.60;;;18.70;99.90;;;;;;5020627;28;20185;-83
2022/08/26 04:52:18;;;;;;;43.73;29.47;;;18.70;99.90;;;;;;5020623;28;20196;-85
2022/08/26 04:54:44;;;;;;;43.87;29.17;;;18.50;99.90;;;;;;5020229;28;20243;-84
2022/08/26 04:57:10;;;;;;;49.60;32.77;;;18.60;99.90;;;;;;5020030;28;20227;-85
2022/08/26 04:59:36;;;;;;;46.70;31.13;;;18.50;99.90;;;;;;5021144;28;20174;-84
2022/08/26 05:02:02;;;;;;;47.77;32.57;;;18.70;99.90;;;;;;5021830;28;20642;-85
2022/08/26 05:04:29;;;;;;;53.93;34.07;;;18.70;99.90;;;;;;5021456;28;20185;-83
2022/08/26 05:06:54;;;;;;;52.30;34.40;;;18.60;99.90;;;;;;5021225;28;20201;-83
2022/08/26 05:09:20;;;;;;;56.23;38.07;;;18.60;99.90;;;;;;5021171;28;20202;-84
2022/08/26 05:11:47;;;;;;;59.67;39.37;;;18.70;99.90;;;;;;5022369;28;20185;-85
2022/08/26 05:14:13;;;;;;;61.40;39.13;;;18.70;99.90;;;;;;5021659;28;20638;-82
2022/08/26 05:16:39;;;;;;;61.03;41.60;;;18.80;99.90;;;;;;5023203;28;20202;-82
2022/08/26 05:19:05;;;;;;;66.13;43.50;;;18.90;99.90;;;;;;5022437;28;20177;-82
2022/08/26 05:21:32;;;;;;;68.13;43.20;;;18.80;99.90;;;;;;5021860;28;20553;-83
2022/08/26 05:23:59;;;;;;;71.13;45.50;;;18.80;99.90;;;;;;5022652;28;20181;-82
2022/08/26 05:26:27;;;;;;;67.50;45.43;;;18.80;99.90;;;;;;5022177;28;20198;-81
2022/08/26 05:28:54;;;;;;;75.17;48.33;;;18.80;99.90;;;;;;5021579;28;20202;-82
2022/08/26 05:31:22;;;;;;;73.63;48.13;;;18.80;99.90;;;;;;5020288;28;20733;-83
2022/08/26 05:33:48;;;;;;;75.37;48.97;;;19.00;99.90;;;;;;5019411;28;20183;-82
2022/08/26 05:36:17;;;;;;;78.37;51.83;;;19.10;99.90;;;;;;5020411;28;20198;-82
2022/08/26 05:38:43;;;;;;;79.37;51.53;;;18.90;99.90;;;;;;5020306;28;20200;-83
2022/08/26 05:41:16;;;;;;;77.67;51.67;;;19.00;99.90;;;;;;5021355;28;20182;-81
2022/08/26 05:43:43;;;;;;;86.80;54.73;;;19.10;99.90;;;;;;5022891;28;20395;-82
2022/08/26 05:46:08;;;;;;;87.23;55.03;;;19.10;99.90;;;;;;5020592;28;20204;-82
2022/08/26 05:48:34;;;;;;;88.57;54.73;;;19.20;99.90;;;;;;5017863;28;20201;-83
2022/08/26 05:51:04;;;;;;;103.77;57.33;;;19.20;99.90;;;;;;5034765;28;20178;-83
2022/08/26 05:53:30;;;;;;;103.77;60.00;;;19.10;99.90;;;;;;5017318;28;20175;-82
2022/08/26 05:55:56;;;;;;;100.97;58.43;;;19.10;99.90;;;;;;5016097;28;20839;-83
2022/08/26 05:58:22;;;;;;;107.13;59.80;;;19.20;99.90;;;;;;5016341;28;20212;-84
2022/08/26 06:00:59;;;;;;;104.83;61.07;;;19.20;99.90;;;;;;5035485;28;20176;-84
2022/08/26 06:03:25;;;;;;;102.33;58.60;;;19.30;99.90;;;;;;5017807;28;20224;-85
2022/08/26 06:05:51;;;;;;;108.13;60.63;;;19.10;99.90;;;;;;5018125;28;20224;-83
2022/08/26 06:08:19;;;;;;;103.73;61.07;;;19.20;99.90;;;;;;5020985;28;20206;-83
2022/08/26 06:10:48;;;;;;;107.33;61.20;;;19.20;99.90;;;;;;5020001;28;20178;-83
2022/08/26 06:13:17;;;;;;;118.80;61.10;;;19.30;99.90;;;;;;5018534;28;20189;-83
2022/08/26 06:15:47;;;;;;;110.93;60.47;;;19.40;99.90;;;;;;5019459;28;20582;-83
2022/08/26 06:18:14;;;;;;;122.77;62.33;;;19.30;99.90;;;;;;5018206;28;20621;-84
2022/08/26 06:20:43;;;;;;;112.47;61.07;;;19.40;99.90;;;;;;5017730;28;20586;-84
2022/08/26 06:25:58;;;;;;;105.80;56.97;;;19.50;99.90;;;;;;5037024;28;20205;-84
2022/08/26 06:28:25;;;;;;;103.30;56.23;;;19.60;99.90;;;;;;5018678;28;20577;-83
2022/08/26 06:30:51;;;;;;;107.77;55.83;;;19.60;99.90;;;;;;5019937;28;20627;-83
2022/08/26 06:33:18;;;;;;;103.07;57.50;;;19.60;99.90;;;;;;5017065;28;20184;-83
2022/08/26 06:35:45;;;;;;;106.73;56.77;;;19.60;99.90;;;;;;5019983;28;20194;-86
2022/08/26 06:38:12;;;;;;;101.97;55.80;;;19.50;99.90;;;;;;5017439;28;20212;-84
2022/08/26 06:40:50;;;;;;;97.93;55.27;;;19.70;99.90;;;;;;5018037;28;20178;-85
2022/08/26 06:43:21;;;;;;;107.50;56.00;;;19.70;99.90;;;;;;5019324;28;20186;-86
2022/08/26 06:45:47;;;;;;;102.40;54.40;;;19.80;99.90;;;;;;5017857;28;20229;-85
2022/08/26 06:48:14;;;;;;;99.53;54.23;;;19.70;99.90;;;;;;5017807;28;20205;-84
2022/08/26 06:50:41;;;;;;;99.10;54.10;;;19.80;99.90;;;;;;5018992;28;20170;-84
2022/08/26 06:53:08;;;;;;;99.90;52.27;;;19.70;99.90;;;;;;5017679;28;20174;-84
2022/08/26 06:55:44;;;;;;;103.30;52.77;;;19.80;99.90;;;;;;5018978;28;20185;-83
2022/08/26 06:58:11;;;;;;;100.93;54.10;;;19.90;99.90;;;;;;5035493;28;20189;-85
2022/08/26 07:00:38;;;;;;;96.03;53.77;;;19.90;99.90;;;;;;5016112;28;20182;-83
2022/08/26 07:03:05;;;;;;;90.13;51.33;;;19.90;99.90;;;;;;5016734;28;20193;-82
2022/08/26 07:05:32;;;;;;;96.20;50.73;;;20.00;99.90;;;;;;5033936;28;20182;-84
2022/08/26 07:07:58;;;;;;;89.07;49.53;;;20.00;99.90;;;;;;5016261;28;20206;-84
2022/08/26 07:10:25;;;;;;;88.43;48.70;;;20.20;99.90;;;;;;5018151;28;20170;-84
2022/08/26 07:12:52;;;;;;;89.43;49.73;;;20.20;99.90;;;;;;5016473;28;20240;-83
2022/08/26 07:15:18;;;;;;;85.80;49.15;;;20.20;99.90;;;;;;5015596;28;20261;-83
2022/08/26 07:17:43;;;;;;;85.97;47.17;;;20.30;99.90;;;;;;5015775;28;20268;-83
2022/08/26 07:20:10;;;;;;;85.35;46.78;;;20.40;99.90;;;;;;5033739;28;20174;-82
2022/08/26 07:22:36;;;;;;;83.77;48.50;;;20.50;99.90;;;;;;5015586;28;20212;-84
2022/08/26 07:25:06;;;;;;;76.78;45.08;;;20.60;99.90;;;;;;5016806;28;20692;-81
2022/08/26 07:27:32;;;;;;;83.18;45.17;;;20.60;99.90;;;;;;5015662;28;20220;-80
2022/08/26 07:29:58;;;;;;;81.82;45.17;;;20.60;99.90;;;;;;5019563;28;20193;-81
2022/08/26 07:32:24;;;;;;;76.13;44.45;;;20.70;99.90;;;;;;5019017;28;20174;-80
2022/08/26 07:34:50;;;;;;;72.10;44.85;;;20.70;99.90;;;;;;5018470;28;20213;-81
2022/08/26 07:37:15;;;;;;;78.82;42.22;;;20.80;99.90;;;;;;5020916;28;20194;-80
2022/08/26 07:39:43;;;;;;;64.80;39.72;;;20.90;99.90;;;;;;5018837;28;20166;-80
2022/08/26 07:42:12;;;;;;;62.97;38.95;;;20.90;99.90;;;;;;5019694;28;20170;-80
2022/08/26 07:44:38;;;;;;;62.10;39.08;;;21.00;99.90;;;;;;5025851;28;20638;-81
2022/08/26 07:47:05;;;;;;;69.43;40.70;;;21.00;99.90;;;;;;5023841;28;20185;-79
2022/08/26 07:49:31;;;;;;;66.97;40.53;;;21.00;99.90;;;;;;5020657;28;20201;-84
2022/08/26 07:51:56;;;;;;;74.00;43.60;;;21.10;99.90;;;;;;5019221;28;20166;-83
2022/08/26 07:54:22;;;;;;;71.22;42.10;;;21.00;99.90;;;;;;5018666;28;20188;-83
2022/08/26 07:56:48;;;;;;;72.75;41.88;;;21.00;99.90;;;;;;5018157;28;20671;-83
2022/08/26 07:59:16;;;;;;;65.40;41.45;;;20.90;99.90;;;;;;5016932;28;20603;-84
2022/08/26 08:01:42;;;;;;;71.80;40.25;;;21.10;99.90;;;;;;5034739;28;20231;-83
2022/08/26 08:04:08;;;;;;;67.75;39.83;;;21.30;99.90;;;;;;5017830;28;20174;-83
2022/08/26 08:06:33;;;;;;;76.63;42.47;;;21.30;99.90;;;;;;5017606;28;20205;-83
2022/08/26 08:08:59;;;;;;;72.35;42.88;;;21.40;99.90;;;;;;5016805;28;20200;-83
2022/08/26 08:11:27;;;;;;;69.88;41.40;;;21.30;99.90;;;;;;5017689;28;20166;-84
2022/08/26 08:13:54;;;;;;;73.55;42.42;;;21.20;99.90;;;;;;5018173;28;20170;-84
2022/08/26 08:16:20;;;;;;;69.88;42.40;;;21.30;99.90;;;;;;5017937;28;20198;-84
2022/08/26 08:18:45;;;;;;;66.53;41.95;;;21.40;99.90;;;;;;5018504;28;20660;-83
2022/08/26 08:21:11;;;;;;;67.80;42.20;;;21.40;99.90;;;;;;5017517;28;20666;-84
2022/08/26 08:23:38;;;;;;;65.95;40.67;;;21.30;99.90;;;;;;5017515;28;20224;-82
2022/08/26 08:26:07;;;;;;;69.90;40.53;;;21.50;99.90;;;;;;5017455;28;20288;-83
2022/08/26 08:28:33;;;;;;;63.38;40.67;;;21.50;99.90;;;;;;5017508;28;20285;-84
2022/08/26 08:30:59;;;;;;;66.57;40.58;;;21.50;99.90;;;;;;5017337;28;20737;-84
2022/08/26 08:33:25;;;;;;;61.08;40.00;;;21.60;99.90;;;;;;5017330;28;20179;-84
2022/08/26 08:35:51;;;;;;;67.78;40.38;;;21.60;99.90;;;;;;5017397;28;20561;-83
2022/08/26 08:38:17;;;;;;;72.60;40.00;;;21.60;99.90;;;;;;5017334;28;20185;-84
2022/08/26 08:40:44;;;;;;;68.32;40.17;;;21.60;99.90;;;;;;5017443;28;20193;-83
2022/08/26 08:43:13;;;;;;;59.70;38.78;;;21.80;99.90;;;;;;5017187;28;20180;-84
2022/08/26 08:45:50;;;;;;;60.75;40.05;;;21.80;99.90;;;;;;5016999;28;20201;-83
2022/08/26 08:48:25;;;;;;;65.25;39.80;;;21.80;99.90;;;;;;5017431;28;20650;-84
2022/08/26 08:50:54;;;;;;;61.75;38.30;;;21.80;99.90;;;;;;5017518;28;20197;-82
2022/08/26 08:53:24;;;;;;;59.05;39.35;;;21.80;99.90;;;;;;5016950;28;20261;-83
2022/08/26 08:56:29;;;;;;;58.05;38.58;;;21.80;99.90;;;;;;5017131;28;20193;-82
2022/08/26 08:59:13;;;;;;;60.13;38.10;;;21.60;99.90;;;;;;5008398;28;20576;-83
2022/08/26 09:02:10;;;;;;;57.80;38.10;;;21.70;99.90;;;;;;5016677;28;20186;-83
2022/08/26 09:04:50;;;;;;;58.00;37.72;;;21.90;99.90;;;;;;5016990;28;20162;-84
2022/08/26 09:07:25;;;;;;;65.65;39.13;;;21.80;99.90;;;;;;5016061;28;20670;-84
2022/08/26 09:09:58;;;;;;;61.92;37.63;;;21.80;99.90;;;;;;5016410;28;20173;-83
2022/08/26 09:12:27;;;;;;;61.72;39.40;;;22.00;99.90;;;;;;5015852;28;20174;-84
2022/08/26 09:15:04;;;;;;;62.40;38.80;;;21.90;99.90;;;;;;5016186;28;20180;-84
2022/08/26 09:17:51;;;;;;;59.75;37.60;;;21.90;99.90;;;;;;5016177;28;20200;-84
2022/08/26 09:20:46;;;;;;;57.42;37.63;;;22.00;99.90;;;;;;5016686;28;20162;-83
2022/08/26 09:23:13;;;;;;;59.58;39.20;;;22.20;99.90;;;;;;5016028;28;20638;-84
2022/08/26 09:25:55;;;;;;;64.05;39.63;;;22.10;99.90;;;;;;5015926;28;20203;-83
2022/08/26 09:28:23;;;;;;;59.78;38.40;;;22.20;99.90;;;;;;5015925;28;20561;-83
2022/08/26 09:31:11;;;;;;;68.13;39.38;;;22.10;99.90;;;;;;5015847;28;20579;-84
2022/08/26 09:33:38;;;;;;;57.40;38.13;;;22.10;99.90;;;;;;5015739;28;20264;-83
2022/08/26 09:36:11;;;;;;;59.10;37.85;;;22.10;99.90;;;;;;5015742;28;20194;-83
2022/08/26 09:38:37;;;;;;;66.40;39.72;;;22.10;99.90;;;;;;5015700;28;20228;-84
2022/08/26 09:41:07;;;;;;;58.88;39.05;;;22.00;99.90;;;;;;5015947;28;20175;-85
2022/08/26 09:43:33;;;;;;;59.83;37.70;;;21.90;99.90;;;;;;5015906;28;20174;-78
2022/08/26 09:46:21;;;;;;;62.20;36.65;;;22.00;99.90;;;;;;5013577;28;20277;-77
2022/08/26 09:48:47;;;;;;;60.42;36.63;;;22.10;99.90;;;;;;5016091;28;20194;-78
2022/08/26 09:51:21;;;;;;;60.78;36.47;;;22.20;99.90;;;;;;5014997;28;20228;-77
2022/08/26 09:53:54;;;;;;;55.10;34.83;;;22.30;99.90;;;;;;5014966;28;20668;-79
2022/08/26 09:56:22;;;;;;;56.65;35.10;;;22.50;99.90;;;;;;5017553;28;20223;-79
2022/08/26 09:58:48;;;;;;;53.40;35.28;;;22.50;99.90;;;;;;5018380;28;20237;-79
2022/08/26 10:01:41;;;;;;;53.08;34.22;;;22.50;99.90;;;;;;5018659;28;20176;-78
2022/08/26 10:04:19;;;;;;;58.17;33.95;;;22.60;99.90;;;;;;5019917;28;20758;-79
2022/08/26 10:06:55;;;;;;;62.10;34.63;;;22.70;99.90;;;;;;5014222;28;20790;-78
2022/08/26 10:09:24;;;;;;;52.75;34.50;;;22.70;99.90;;;;;;5014571;28;20263;-78
2022/08/26 10:11:54;;;;;;;53.40;32.90;;;22.80;99.90;;;;;;5016990;28;20176;-79
2022/08/26 10:14:32;;;;;;;55.70;32.55;;;22.70;99.90;;;;;;5017382;28;20543;-78
2022/08/26 10:17:06;;;;;;;52.13;34.00;;;22.80;99.90;;;;;;5016263;28;20217;-78
2022/08/26 10:19:39;;;;;;;51.40;32.05;;;22.70;99.90;;;;;;5016363;28;20182;-78
2022/08/26 10:22:24;;;;;;;54.97;31.80;;;22.80;99.90;;;;;;5017142;28;20174;-79
2022/08/26 10:24:56;;;;;;;53.38;31.42;;;22.90;99.90;;;;;;5016058;28;20174;-78
2022/08/26 10:27:49;;;;;;;51.03;31.55;;;23.00;99.90;;;;;;5014077;28;20294;-79
2022/08/26 10:30:20;;;;;;;45.95;28.75;;;23.00;99.90;;;;;;5013642;28;20662;-78
2022/08/26 10:32:59;;;;;;;54.67;30.85;;;23.20;99.90;;;;;;5013328;28;20604;-78
2022/08/26 10:35:25;;;;;;;52.92;31.83;;;23.20;99.90;;;;;;5013752;28;20174;-78
2022/08/26 10:38:13;;;;;;;52.42;31.85;;;23.10;99.90;;;;;;5014033;28;20185;-78
2022/08/26 10:41:01;;;;;;;47.85;30.67;;;23.30;99.90;;;;;;5013529;28;20186;-78
2022/08/26 10:43:35;;;;;;;47.33;29.83;;;23.40;99.90;;;;;;5014306;28;20204;-78
2022/08/26 10:46:10;;;;;;;46.35;28.73;;;23.40;99.90;;;;;;5013984;28;20193;-78
2022/08/26 10:49:07;;;;;;;45.33;27.30;;;23.20;99.90;;;;;;5013502;28;20827;-78
2022/08/26 10:51:40;;;;;;;43.75;27.25;;;23.50;99.90;;;;;;5013836;28;20257;-78
2022/08/26 10:54:12;;;;;;;43.42;28.00;;;23.40;99.90;;;;;;5014620;28;20177;-78
2022/08/26 10:57:07;;;;;;;40.28;28.15;;;23.40;99.90;;;;;;5013407;28;20293;-77
2022/08/26 10:59:45;;;;;;;48.70;29.70;;;23.20;99.90;;;;;;5013903;28;20184;-77
2022/08/26 11:02:10;;;;;;;42.15;28.17;;;23.20;99.90;;;;;;5013607;28;20202;-78
2022/08/26 11:04:51;;;;;;;44.30;28.67;;;23.30;99.90;;;;;;5013619;28;20177;-78
2022/08/26 11:07:41;;;;;;;41.33;27.10;;;23.40;99.90;;;;;;5013520;28;20233;-78
2022/08/26 11:10:18;;;;;;;47.53;27.40;;;23.20;99.90;;;;;;5013559;28;20555;-78
2022/08/26 11:12:44;;;;;;;42.35;27.48;;;23.10;99.90;;;;;;5013591;28;20213;-78
2022/08/26 11:15:19;;;;;;;41.03;26.50;;;23.40;99.90;;;;;;5013058;28;20225;-77
2022/08/26 11:17:45;;;;;;;39.92;23.70;;;23.40;99.90;;;;;;5015468;28;20188;-79
2022/08/26 11:20:32;;;;;;;46.60;25.58;;;23.60;99.90;;;;;;5017892;28;20541;-77
2022/08/26 11:23:27;;;;;;;36.47;23.85;;;23.80;99.90;;;;;;5016946;28;20677;-77
2022/08/26 11:25:55;;;;;;;34.90;23.60;;;24.20;99.90;;;;;;5019581;28;20185;-78
2022/08/26 11:28:46;;;;;;;39.17;22.83;;;24.40;99.90;;;;;;5018901;28;20190;-78
2022/08/26 11:31:24;;;;;;;30.17;20.40;;;24.20;99.90;;;;;;5017602;28;20178;-78
2022/08/26 11:33:50;;;;;;;33.25;23.27;;;24.40;99.90;;;;;;5018977;28;20546;-78
2022/08/26 11:36:40;;;;;;;34.97;23.63;;;24.20;99.90;;;;;;5018675;28;20289;-78
2022/08/26 11:39:12;;;;;;;34.00;21.00;;;24.30;99.90;;;;;;5019116;28;20646;-79
2022/08/26 11:41:45;;;;;;;30.70;20.20;;;24.50;99.90;;;;;;5020574;28;20178;-80
2022/08/26 11:44:17;;;;;;;38.22;22.73;;;24.30;99.90;;;;;;5021574;28;20174;-80
2022/08/26 11:46:56;;;;;;;35.30;22.20;;;24.30;99.90;;;;;;5020050;28;20208;-79
2022/08/26 11:49:23;;;;;;;29.95;19.50;;;24.50;99.90;;;;;;5019820;28;20681;-78
2022/08/26 11:51:49;;;;;;;31.70;20.67;;;24.70;99.90;;;;;;5018999;28;20235;-78
2022/08/26 11:54:20;;;;;;;31.65;19.77;;;24.80;99.90;;;;;;5019595;28;20169;-78
2022/08/26 11:56:49;;;;;;;30.65;20.15;;;24.90;99.90;;;;;;5024917;28;20210;-80
2022/08/26 11:59:32;;;;;;;34.90;19.00;;;24.90;99.90;;;;;;5029450;28;20177;-80
2022/08/26 12:01:59;;;;;;;27.63;18.88;;;24.60;99.90;;;;;;5027464;28;20245;-80
2022/08/26 12:04:29;;;;;;;32.55;18.42;;;24.70;99.90;;;;;;5019706;28;20177;-78
2022/08/26 12:06:56;;;;;;;25.17;17.73;;;24.70;99.90;;;;;;5018180;28;20556;-78
2022/08/26 12:09:31;;;;;;;27.88;18.02;;;24.80;99.90;;;;;;5018026;28;20212;-78
2022/08/26 12:12:31;;;;;;;21.83;16.05;;;24.90;99.90;;;;;;5018921;28;20661;-79
2022/08/26 12:15:15;;;;;;;24.63;17.60;;;25.30;99.90;;;;;;5022985;28;20158;-79
2022/08/26 12:17:44;;;;;;;23.98;16.30;;;25.50;99.90;;;;;;5008006;28;20291;-79
2022/08/26 12:20:19;;;;;;;32.45;16.42;;;25.90;99.90;;;;;;5024005;28;20627;-79
2022/08/26 12:22:45;;;;;;;25.70;14.88;;;25.70;99.90;;;;;;5022293;28;20165;-79
2022/08/26 12:25:11;;;;;;;24.20;14.23;;;25.60;99.90;;;;;;5024547;28;20228;-79
2022/08/26 12:27:40;;;;;;;22.65;13.13;;;26.30;99.90;;;;;;5025773;28;20209;-79
2022/08/26 12:30:14;;;;;;;27.08;14.73;;;26.50;99.90;;;;;;5025222;28;20223;-79
2022/08/26 12:32:47;;;;;;;28.80;14.02;;;26.40;99.90;;;;;;5025584;28;20174;-81
2022/08/26 12:35:16;;;;;;;20.90;13.20;;;26.10;99.90;;;;;;5029912;28;20515;-81
2022/08/26 12:37:45;;;;;;;24.15;14.23;;;25.80;99.90;;;;;;5032919;28;20222;-81
2022/08/26 12:40:29;;;;;;;24.17;13.98;;;25.90;99.90;;;;;;5031755;28;20170;-80
2022/08/26 12:42:59;;;;;;;25.33;14.02;;;25.90;99.90;;;;;;5033047;28;20170;-80